Time;durP1;ratioP1;P1;durP2;ratioP2;P2;SDS_P1;SDS_P2;PMS_P1;PMS_P2;Temp;Humidity;BMP_temperature;BMP_pressure;BME280_temperature;BME280_humidity;BME280_pressure;Samples;Min_cycle;Max_cycle;Signal;HPM_P1;HPM_P2
2023/05/04 02:06:40;;;;;;;;;;;;;;;;;;4981645;28;19982;-87
2023/05/04 02:09:09;;;;;;;;;;;;;;;;;;4981024;28;19918;-88
2023/05/04 02:11:36;;;;;;;;;;;;;;;;;;4979970;28;19929;-88
2023/05/04 02:14:03;;;;;;;;;;;;;;;;;;4981192;28;19922;-87
2023/05/04 02:16:33;;;;;;;;;;;;;;;;;;4981008;28;19907;-87
2023/05/04 02:18:59;;;;;;;;;;;;;;;;;;4965500;29;19929;-87
2023/05/04 02:21:26;;;;;;;;;;;;;;;;;;4963223;29;19926;-87
2023/05/04 05:33:34;;;;;;;;;;;;;;;;;;4974676;28;19927;-88
2023/05/04 05:36:04;;;;;;;;;;;;;;;;;;4962609;29;19938;-88
2023/05/04 05:38:43;;;;;;;;;;;;;;;;;;4979781;28;19933;-88
2023/05/04 05:41:25;;;;;;;;;;;;;;;;;;4978999;28;19918;-88
2023/05/04 05:49:41;;;;;;;;;;;;;;;;;;4987127;23;19911;-87
2023/05/04 06:00:12;;;;;;;;;;;;;;;;;;5689088;23;19911;-85
2023/05/04 06:02:54;;;;;;;;;;;;;;;;;;4958453;29;19927;-88
2023/05/04 06:05:42;;;;;;;;;;;;;;;;;;4960849;29;19979;-87
2023/05/04 06:08:12;;;;;;;;;;;;;;;;;;4962436;29;19979;-88
2023/05/04 06:10:44;;;;;;;;;;;;;;;;;;4963718;29;19911;-88
2023/05/04 06:13:13;;;;;;;;;;;;;;;;;;4978436;28;19927;-87
2023/05/04 06:15:39;;;;;;;;;;;;;;;;;;4963415;29;19986;-87
2023/05/04 06:49:16;;;;;;;;;;;;;;;;;;5854504;23;19923;-91
2023/05/04 06:51:43;;;;;;;;;;;;;;;;;;4977307;28;19969;-87
2023/05/04 06:54:09;;;;;;;;;;;;;;;;;;4963170;28;19927;-92
2023/05/04 06:59:21;;;;;;;;;;;;;;;;;;6023347;23;19920;-86
2023/05/04 07:01:49;;;;;;;;;;;;;;;;;;4957306;29;19978;-86
2023/05/04 07:04:22;;;;;;;;;;;;;;;;;;4958948;29;19958;-87
2023/05/04 07:06:51;;;;;;;;;;;;;;;;;;4949094;29;19962;-87
2023/05/04 07:09:32;;;;;;;;;;;;;;;;;;4949832;29;19937;-88
2023/05/04 07:11:58;;;;;;;;;;;;;;;;;;5155321;23;19910;-84
2023/05/04 07:14:26;;;;;;;;;;;;;;;;;;4985175;28;19919;-86
2023/05/04 07:16:55;;;;;;;;;;;;;;;;;;4998791;28;19962;-86
2023/05/04 07:19:23;;;;;;;;;;;;;;;;;;4998549;28;19932;-87
2023/05/04 07:21:49;;;;;;;;;;;;;;;;;;4978759;28;19910;-86
2023/05/04 07:27:19;;;;;;;;;;;;;;;;;;5007943;28;19917;-87
2023/05/04 07:32:40;;;;;;;;;;;;;;;;;;4978347;28;19918;-88
2023/05/04 08:03:43;;;;;;;;;;;;;;;;;;5791267;23;19937;-91
2023/05/04 08:19:08;;;;;;;;;;;;;;;;;;5238641;23;19957;-91
2023/05/04 08:21:39;;;;;;;;;;;;;;;;;;4959434;29;19907;-92
2023/05/04 08:27:05;;;;;;;;;;;;;;;;;;5550626;23;19910;-92
2023/05/04 08:29:54;;;;;;;;;;;;;;;;;;5316254;23;19926;-91
2023/05/04 08:42:46;;;;;;;;;;;;;;;;;;5884148;23;19935;-92
2023/05/04 08:45:14;;;;;;;;;;;;;;;;;;4960806;29;19981;-91
2023/05/04 08:48:00;;;;;;;;;;;;;;;;;;5745813;23;19927;-90
2023/05/04 08:50:27;;;;;;;;;;;;;;;;;;4954731;29;19926;-93
2023/05/04 08:52:59;;;;;;;;;;;;;;;;;;5156471;23;19933;-93
2023/05/04 09:05:49;;;;;;;;;;;;;;;;;;4977296;28;19946;-86
2023/05/04 09:08:23;;;;;;;;;;;;;;;;;;4988085;28;19910;-86
2023/05/04 09:11:01;;;;;;;;;;;;;;;;;;4975869;29;19933;-87
2023/05/04 09:13:27;;;;;;;;;;;;;;;;;;4961424;29;19958;-85
2023/05/04 09:16:13;;;;;;;;;;;;;;;;;;4978217;28;20002;-86
2023/05/04 09:18:39;;;;;;;;;;;;;;;;;;4960108;28;19927;-85
2023/05/04 09:21:27;;;;;;;;;;;;;;;;;;4958815;29;19942;-86
2023/05/04 09:24:11;;;;;;;;;;;;;;;;;;4966785;29;19966;-85
2023/05/04 09:32:05;;;;;;;;;;;;;;;;;;5491466;23;19969;-85
2023/05/04 09:34:59;;;;;;;;;;;;;;;;;;4976469;28;19911;-87
2023/05/04 09:37:34;;;;;;;;;;;;;;;;;;4968013;28;19926;-87
2023/05/04 09:40:00;;;;;;;;;;;;;;;;;;4949523;29;19986;-86
2023/05/04 09:42:29;;;;;;;;;;;;;;;;;;4956524;29;19946;-84
2023/05/04 09:45:01;;;;;;;;;;;;;;;;;;4969128;28;19927;-86
2023/05/04 09:47:27;;;;;;;;;;;;;;;;;;4949367;29;19929;-86
2023/05/04 09:49:54;;;;;;;;;;;;;;;;;;4957377;29;19938;-87
2023/05/04 09:52:21;;;;;;;;;;;;;;;;;;4960872;28;20304;-86
2023/05/04 09:57:23;;;;;;;;;;;;;;;;;;5148142;23;19926;-87
2023/05/04 09:59:53;;;;;;;;;;;;;;;;;;4970880;28;19981;-86
2023/05/04 10:07:31;;;;;;;;;;;;;;;;;;3075612;26;19910;-87
2023/05/04 10:10:12;;;;;;;;;;;;;;;;;;4951396;28;19923;-86
2023/05/04 10:12:46;;;;;;;;;;;;;;;;;;4975737;28;19910;-86
2023/05/04 10:15:12;;;;;;;;;;;;;;;;;;4999544;28;19906;-86
2023/05/04 10:17:56;;;;;;;;;;;;;;;;;;4971794;28;19914;-86
2023/05/04 10:20:36;;;;;;;;;;;;;;;;;;4972098;29;19923;-85
2023/05/04 10:23:17;;;;;;;;;;;;;;;;;;4968995;28;19917;-86
2023/05/04 10:25:55;;;;;;;;;;;;;;;;;;4963770;28;19953;-86
2023/05/04 10:28:37;;;;;;;;;;;;;;;;;;4966052;29;19926;-87
2023/05/04 10:31:05;;;;;;;;;;;;;;;;;;4959658;29;19935;-86
2023/05/04 10:33:31;;;;;;;;;;;;;;;;;;4976421;28;19958;-86
2023/05/04 10:35:57;;;;;;;;;;;;;;;;;;4958172;29;19923;-88
2023/05/04 10:38:23;;;;;;;;;;;;;;;;;;4952701;29;20025;-87
2023/05/04 10:40:52;;;;;;;;;;;;;;;;;;4948909;29;19922;-87
2023/05/04 10:43:18;;;;;;;;;;;;;;;;;;4961115;29;19930;-86
2023/05/04 10:45:56;;;;;;;;;;;;;;;;;;4960299;29;19933;-86
2023/05/04 10:48:22;;;;;;;;;;;;;;;;;;4963406;29;19906;-88
2023/05/04 10:51:07;;;;;;;;;;;;;;;;;;5139324;23;19911;-85
2023/05/04 10:53:33;;;;;;;;;;;;;;;;;;4954986;28;19925;-86
2023/05/04 10:56:02;;;;;;;;;;;;;;;;;;4955784;29;19942;-88
2023/05/04 11:01:21;;;;;;;;;;;;;;;;;;4962790;29;19962;-88
2023/05/04 11:06:52;;;;;;;;;;;;;;;;;;4969218;28;19937;-86
2023/05/04 11:14:41;;;;;;;;;;;;;;;;;;4978573;28;19910;-86
2023/05/04 11:17:40;;;;;;;;;;;;;;;;;;4985157;28;19941;-86
2023/05/04 11:31:59;;;;;;;;;;;;;;;;;;4981787;28;20002;-86
2023/05/04 11:34:51;;;;;;;;;;;;;;;;;;4985433;28;19964;-87
2023/05/04 11:37:26;;;;;;;;;;;;;;;;;;4963742;28;19923;-86
2023/05/04 11:39:55;;;;;;;;;;;;;;;;;;4981154;28;19950;-86
2023/05/04 11:42:21;;;;;;;;;;;;;;;;;;4979747;28;19934;-86
2023/05/04 11:44:51;;;;;;;;;;;;;;;;;;4964799;29;19933;-87
2023/05/04 11:47:25;;;;;;;;;;;;;;;;;;4964274;29;19907;-86
2023/05/04 11:50:19;;;;;;;;;;;;;;;;;;4979821;28;19933;-86
2023/05/04 11:52:54;;;;;;;;;;;;;;;;;;4961889;29;19927;-87
2023/05/04 11:55:22;;;;;;;;;;;;;;;;;;4965954;29;20008;-89
2023/05/04 11:57:55;;;;;;;;;;;;;;;;;;4980740;28;19915;-87
2023/05/04 12:00:22;;;;;;;;;;;;;;;;;;4964397;28;19922;-87
2023/05/04 12:28:44;;;;;;;;;;;;;;;;;;4973473;28;19937;-94
2023/05/04 12:36:23;;;;;;;;;;;;;;;;;;5320395;23;19954;-92
2023/05/04 12:38:49;;;;;;;;;;;;;;;;;;4966760;29;19962;-92
2023/05/04 12:41:19;;;;;;;;;;;;;;;;;;4967184;29;19945;-92
2023/05/04 12:43:50;;;;;;;;;;;;;;;;;;5492112;23;19950;-92
2023/05/04 12:46:31;;;;;;;;;;;;;;;;;;4969225;28;20003;-91
2023/05/04 12:48:59;;;;;;;;;;;;;;;;;;5101226;23;19927;-92
2023/05/04 12:51:34;;;;;;;;;;;;;;;;;;4940738;28;19911;-90
2023/05/04 12:54:06;;;;;;;;;;;;;;;;;;4958671;29;19917;-91
2023/05/04 12:56:38;;;;;;;;;;;;;;;;;;4923806;29;19934;-93
2023/05/04 13:01:41;;;;;;;;;;;;;;;;;;5679350;23;19930;-91
2023/05/04 13:04:07;;;;;;;;;;;;;;;;;;4964185;28;19984;-91
2023/05/04 13:06:33;;;;;;;;;;;;;;;;;;5374448;23;19925;-92
2023/05/04 13:09:04;;;;;;;;;;;;;;;;;;5414634;23;19958;-91
2023/05/04 13:11:31;;;;;;;;;;;;;;;;;;4954996;29;19935;-92
2023/05/04 14:05:52;;;;;;;;;;;;;;;;;;5160717;23;19926;-91
2023/05/04 14:11:00;;;;;;;;;;;;;;;;;;5249631;23;19933;-92
2023/05/04 14:21:39;;;;;;;;;;;;;;;;;;5490764;23;19926;-94
2023/05/04 14:26:40;;;;;;;;;;;;;;;;;;5393958;23;19933;-95
2023/05/04 14:31:42;;;;;;;;;;;;;;;;;;5492857;23;19926;-93
2023/05/04 14:34:08;;;;;;;;;;;;;;;;;;4978255;28;19926;-94
2023/05/04 14:36:37;;;;;;;;;;;;;;;;;;4977882;28;19981;-93
2023/05/04 16:38:32;;;;;;;;;;;;;;;;;;4984766;28;19926;-92
2023/05/04 16:40:58;;;;;;;;;;;;;;;;;;4976694;28;19922;-90
2023/05/04 16:43:24;;;;;;;;;;;;;;;;;;4979291;28;19946;-92
2023/05/04 16:51:03;;;;;;;;;;;;;;;;;;5758709;23;19936;-89
2023/05/04 17:09:04;;;;;;;;;;;;;;;;;;5643498;23;19926;-91
2023/05/04 17:14:07;;;;;;;;;;;;;;;;;;5235794;23;19937;-90
2023/05/04 17:16:53;;;;;;;;;;;;;;;;;;5319247;23;19929;-91
2023/05/04 17:19:19;;;;;;;;;;;;;;;;;;4973883;28;19926;-90
2023/05/04 17:21:45;;;;;;;;;;;;;;;;;;4958853;29;19912;-91
2023/05/04 17:29:42;;;;;;;;;;;;;;;;;;5412173;23;20017;-85
2023/05/04 17:35:02;;;;;;;;;;;;;;;;;;;;;
2023/05/04 17:38:02;;;;;;;;;;;;;;;;;;4979599;28;19913;-91
2023/05/04 17:40:29;;;;;;;;;;;;;;;;;;4965329;28;19968;-91
2023/05/04 17:42:57;;;;;;;;;;;;;;;;;;4978991;28;19930;-92
2023/05/04 17:55:46;;;;;;;;;;;;;;;;;;5910273;23;19914;-91
2023/05/04 17:58:12;;;;;;;;;;;;;;;;;;4963852;28;19922;-90
2023/05/04 18:00:41;;;;;;;;;;;;;;;;;;4963230;29;19933;-89
2023/05/04 18:03:38;;;;;;;;;;;;;;;;;;5489672;23;19930;-90
2023/05/04 18:09:08;;;;;;;;;;;;;;;;;;4996344;28;19924;-90
2023/05/04 18:11:34;;;;;;;;;;;;;;;;;;4970727;28;19926;-91
2023/05/04 18:14:01;;;;;;;;;;;;;;;;;;4982275;28;19926;-91
2023/05/04 18:16:39;;;;;;;;;;;;;;;;;;4986376;28;19916;-87
2023/05/04 18:19:11;;;;;;;;;;;;;;;;;;4975112;28;19910;-90
2023/05/04 18:21:44;;;;;;;;;;;;;;;;;;5002343;28;19911;-92
